Time;durP1;ratioP1;P1;durP2;ratioP2;P2;SDS_P1;SDS_P2;PMS_P1;PMS_P2;Temp;Humidity;BMP_temperature;BMP_pressure;BME280_temperature;BME280_humidity;BME280_pressure;Samples;Min_cycle;Max_cycle;Signal;HPM_P1;HPM_P2
2023/07/06 00:05:15;;;;;;;0.77;0.30;;;;;;;21.98;39.44;101509.72;16113816;19;129841;-58
2023/07/06 00:10:39;;;;;;;1.40;0.40;;;;;;;21.97;39.68;101515.56;16118379;19;134902;-57
2023/07/06 00:16:01;;;;;;;1.88;0.20;;;;;;;21.97;39.63;101508.03;16114179;19;129878;-59
2023/07/06 00:21:24;;;;;;;0.28;0.20;;;;;;;21.97;39.71;101510.81;16119578;19;130604;-56
2023/07/06 00:26:46;;;;;;;0.85;0.30;;;;;;;21.97;39.72;101518.34;16116784;19;129890;-56
2023/07/06 00:32:26;;;;;;;0.20;0.20;;;;;;;21.96;39.25;101511.06;16117856;19;129585;-55
2023/07/06 00:37:51;;;;;;;0.10;0.10;;;;;;;21.95;39.71;101506.59;16113655;19;130626;-57
2023/07/06 00:43:16;;;;;;;2.47;0.30;;;;;;;21.95;39.70;101501.03;16113910;19;134777;-57
2023/07/06 00:48:44;;;;;;;1.40;0.73;;;;;;;21.94;39.68;101502.97;16119778;19;131348;-56
2023/07/06 00:54:14;;;;;;;1.25;0.30;;;;;;;21.94;39.76;101504.91;16110443;19;130266;-58
2023/07/06 00:59:37;;;;;;;1.55;0.20;;;;;;;21.92;39.29;101513.53;16105699;19;132394;-57
2023/07/06 01:05:01;;;;;;;1.25;0.28;;;;;;;21.92;39.83;101509.88;16110651;19;130010;-57
2023/07/06 01:10:23;;;;;;;0.40;0.20;;;;;;;21.89;39.80;101516.81;16110247;19;129678;-57
2023/07/06 01:15:54;;;;;;;0.57;0.20;;;;;;;21.89;39.32;101508.47;16108021;19;130125;-57
2023/07/06 01:21:25;;;;;;;0.55;0.28;;;;;;;21.90;39.55;101510.16;16113861;19;129716;-56
2023/07/06 01:26:50;;;;;;;0.35;0.20;;;;;;;21.89;39.88;101513.22;16111147;19;130372;-58
2023/07/06 01:32:21;;;;;;;0.53;0.30;;;;;;;21.88;39.33;101509.56;16109509;19;129871;-58
2023/07/06 01:37:45;;;;;;;1.58;0.30;;;;;;;21.87;39.66;101505.09;16102729;19;131122;-56
2023/07/06 01:43:07;;;;;;;0.43;0.30;;;;;;;21.86;39.72;101508.13;16106716;19;130166;-58
2023/07/06 01:48:29;;;;;;;0.20;0.10;;;;;;;21.85;39.76;101509.22;16103685;19;130552;-57
2023/07/06 01:53:59;;;;;;;0.25;0.20;;;;;;;21.85;39.87;101510.06;16108271;19;130346;-58
2023/07/06 01:59:26;;;;;;;0.57;0.28;;;;;;;21.85;39.81;101509.22;16105419;19;129759;-58
2023/07/06 02:04:51;;;;;;;0.40;0.13;;;;;;;21.83;39.73;101506.72;16109327;19;129228;-57
2023/07/06 02:10:14;;;;;;;0.47;0.28;;;;;;;21.82;39.96;101511.41;16119625;19;136473;-58
2023/07/06 02:15:36;;;;;;;0.55;0.30;;;;;;;21.81;39.67;101504.16;16119715;19;130588;-57
2023/07/06 02:20:58;;;;;;;0.60;0.20;;;;;;;21.80;40.04;101507.22;16119001;19;131215;-58
2023/07/06 02:26:20;;;;;;;0.75;0.20;;;;;;;21.79;39.83;101498.00;16121495;19;129486;-58
2023/07/06 02:31:42;;;;;;;1.00;0.32;;;;;;;21.79;39.49;101500.78;16123290;19;130278;-55
2023/07/06 02:37:04;;;;;;;0.80;0.30;;;;;;;21.78;39.92;101493.56;16117646;19;129971;-57
2023/07/06 02:42:26;;;;;;;1.08;0.32;;;;;;;21.79;39.77;101497.16;16113629;19;131202;-57
2023/07/06 02:47:48;;;;;;;1.52;0.30;;;;;;;21.78;39.90;101499.13;16116387;19;130321;-59
2023/07/06 02:53:10;;;;;;;0.73;0.30;;;;;;;21.76;39.76;101504.09;16114378;19;132777;-59
2023/07/06 02:58:34;;;;;;;1.27;0.20;;;;;;;21.77;40.03;101516.06;16117708;19;130433;-61
2023/07/06 03:03:56;;;;;;;0.40;0.40;;;;;;;21.76;39.87;101520.81;16117959;19;130477;-58
2023/07/06 03:09:18;;;;;;;1.15;0.28;;;;;;;21.74;39.82;101517.44;16115381;19;130440;-59
2023/07/06 03:14:40;;;;;;;0.95;0.40;;;;;;;21.75;40.10;101519.13;16115370;19;129769;-59
2023/07/06 03:20:24;;;;;;;0.15;0.15;;;;;;;21.75;39.57;101529.41;16113317;19;130434;-58
2023/07/06 03:25:50;;;;;;;1.17;0.28;;;;;;;21.74;39.56;101534.13;16112864;19;130706;-57
2023/07/06 03:31:14;;;;;;;0.82;0.40;;;;;;;21.71;39.76;101545.78;16112424;19;129880;-58
2023/07/06 03:36:38;;;;;;;0.65;0.30;;;;;;;21.71;39.84;101545.78;16114875;19;129508;-59
2023/07/06 03:42:01;;;;;;;1.20;0.30;;;;;;;21.70;39.60;101552.44;16113321;19;131065;-59
2023/07/06 03:47:26;;;;;;;0.95;0.40;;;;;;;21.70;39.64;101555.22;16115008;19;131531;-59
2023/07/06 03:52:48;;;;;;;0.75;0.30;;;;;;;21.69;39.85;101556.31;16108655;19;130652;-59
2023/07/06 03:58:10;;;;;;;0.88;0.30;;;;;;;21.68;39.89;101557.41;16115192;19;129446;-57
2023/07/06 04:03:33;;;;;;;0.75;0.35;;;;;;;21.69;39.94;101561.88;16116919;19;130840;-58
2023/07/06 04:08:59;;;;;;;0.60;0.30;;;;;;;21.68;39.92;101568.53;16115559;19;129229;-59
2023/07/06 04:14:25;;;;;;;0.90;0.38;;;;;;;21.67;39.58;101573.28;16113680;19;130808;-58
2023/07/06 04:19:47;;;;;;;0.40;0.30;;;;;;;21.66;39.98;101565.19;16109120;19;131756;-60
2023/07/06 04:25:09;;;;;;;1.75;0.47;;;;;;;21.65;40.05;101563.50;16117334;19;131303;-58
2023/07/06 04:30:36;;;;;;;1.77;0.60;;;;;;;21.65;40.20;101563.50;16110447;19;131063;-58
2023/07/06 04:35:58;;;;;;;0.68;0.20;;;;;;;21.64;39.76;101572.94;16115145;19;134391;-56
2023/07/06 04:41:22;;;;;;;1.00;0.30;;;;;;;21.63;39.91;101574.03;16113365;19;130472;-58
2023/07/06 04:46:43;;;;;;;0.40;0.30;;;;;;;21.63;39.99;101577.66;16106987;19;129707;-58
2023/07/06 04:52:06;;;;;;;0.93;0.32;;;;;;;21.63;39.91;101576.81;16109472;19;129345;-58
2023/07/06 04:57:29;;;;;;;0.80;0.40;;;;;;;21.63;39.72;101583.22;16114275;19;131774;-58
2023/07/06 05:02:58;;;;;;;1.05;0.40;;;;;;;21.62;40.09;101589.88;16109943;19;131183;-58
2023/07/06 05:08:21;;;;;;;0.60;0.40;;;;;;;21.61;39.94;101595.72;16114158;19;129600;-60
2023/07/06 05:13:45;;;;;;;0.63;0.30;;;;;;;21.62;39.87;101594.63;16108523;19;131642;-59
2023/07/06 05:19:07;;;;;;;0.85;0.57;;;;;;;21.61;40.13;101601.28;16113376;19;130547;-60
2023/07/06 05:24:29;;;;;;;4.35;0.60;;;;;;;21.59;39.89;101592.34;16112025;19;129364;-57
2023/07/06 05:29:51;;;;;;;1.65;0.50;;;;;;;21.59;40.11;101586.78;16112802;19;130210;-59
2023/07/06 05:35:13;;;;;;;2.47;0.40;;;;;;;21.60;39.96;101594.03;16106796;19;130668;-60
2023/07/06 05:40:40;;;;;;;2.85;0.70;;;;;;;21.60;39.88;101599.59;16111528;19;129920;-58
2023/07/06 05:46:01;;;;;;;1.70;0.50;;;;;;;21.59;39.90;101597.91;16111289;19;130525;-59
2023/07/06 05:51:23;;;;;;;2.55;0.60;;;;;;;21.57;39.86;101600.94;16108287;19;131037;-59
2023/07/06 05:56:48;;;;;;;3.42;0.77;;;;;;;21.57;40.28;101602.88;16109613;19;129367;-57
2023/07/06 06:02:12;;;;;;;3.53;0.82;;;;;;;21.58;39.90;101605.44;16106600;19;129569;-59
2023/07/06 06:07:34;;;;;;;2.03;0.80;;;;;;;21.59;39.90;101611.81;16104240;19;130303;-57
2023/07/06 06:12:57;;;;;;;3.45;0.82;;;;;;;21.60;40.20;101627.44;16110647;19;129348;-60
2023/07/06 06:18:20;;;;;;;7.43;1.02;;;;;;;21.58;40.13;101619.34;16106940;19;129642;-60
2023/07/06 06:23:42;;;;;;;3.85;0.60;;;;;;;21.58;40.28;101622.13;16111727;19;130257;-59
2023/07/06 06:29:03;;;;;;;1.98;1.05;;;;;;;21.59;40.15;101622.97;16107815;19;130150;-58
2023/07/06 06:34:25;;;;;;;2.40;1.00;;;;;;;21.60;40.31;101633.00;16106386;19;129770;-60
2023/07/06 06:39:47;;;;;;;3.17;1.00;;;;;;;21.60;40.29;101633.84;16109589;19;129370;-58
2023/07/06 06:45:12;;;;;;;4.75;0.73;;;;;;;21.74;40.09;101634.41;16108699;19;130891;-59
2023/07/06 06:50:34;;;;;;;3.28;1.23;;;;;;;21.83;39.88;101649.59;16116276;19;130902;-59
2023/07/06 06:55:57;;;;;;;2.95;1.27;;;;;;;21.93;39.75;101648.94;16127302;19;130482;-60
2023/07/06 07:01:20;;;;;;;7.03;1.98;;;;;;;22.03;39.93;101653.81;16125805;19;130296;-59
2023/07/06 07:06:42;;;;;;;3.63;1.38;;;;;;;22.09;39.57;101652.84;16121004;19;129540;-59
2023/07/06 07:12:05;;;;;;;4.18;1.17;;;;;;;22.17;39.53;101656.28;16119740;19;131164;-59
2023/07/06 07:17:27;;;;;;;4.88;1.50;;;;;;;22.22;39.67;101659.19;16121349;19;129717;-59
2023/07/06 07:22:49;;;;;;;2.78;1.25;;;;;;;22.25;39.24;101661.50;16123685;19;129482;-59
2023/07/06 07:28:11;;;;;;;7.57;1.38;;;;;;;22.30;39.44;101660.72;16116968;19;130782;-59
2023/07/06 07:33:33;;;;;;;5.55;1.85;;;;;;;22.33;39.46;101663.84;16121439;19;129488;-58
2023/07/06 07:38:56;;;;;;;3.53;1.10;;;;;;;22.36;39.13;101668.91;16118614;19;129720;-59
2023/07/06 07:44:18;;;;;;;4.15;1.42;;;;;;;22.39;39.44;101670.34;16121843;19;129768;-57
2023/07/06 07:49:40;;;;;;;5.95;1.80;;;;;;;22.40;39.39;101672.88;16117230;19;131692;-60
2023/07/06 07:55:02;;;;;;;5.03;1.77;;;;;;;22.43;39.44;101674.31;16120666;19;131205;-57
2023/07/06 08:00:24;;;;;;;4.45;1.25;;;;;;;22.44;39.60;101671.28;16120725;19;130472;-57
2023/07/06 08:05:46;;;;;;;7.03;1.42;;;;;;;22.47;39.17;101675.47;16114537;19;129909;-59
2023/07/06 08:11:15;;;;;;;8.38;1.52;;;;;;;22.47;39.62;101674.66;16118102;19;131927;-57
2023/07/06 08:16:38;;;;;;;6.53;1.77;;;;;;;22.48;39.35;101679.13;16118987;19;129697;-56
2023/07/06 08:22:00;;;;;;;5.03;1.52;;;;;;;22.46;39.56;101681.31;16114673;19;130501;-57
2023/07/06 08:27:30;;;;;;;5.85;1.30;;;;;;;22.44;39.44;101681.59;16120707;19;129965;-52
2023/07/06 08:32:51;;;;;;;2.72;1.08;;;;;;;22.48;39.61;101693.06;16117068;19;129480;-58
2023/07/06 08:38:14;;;;;;;4.47;1.38;;;;;;;22.42;39.79;101701.34;16119692;19;133758;-58
2023/07/06 08:43:36;;;;;;;4.68;1.13;;;;;;;22.39;39.55;101701.88;16118005;19;130890;-57
2023/07/06 08:49:00;;;;;;;7.90;1.45;;;;;;;22.36;39.74;101701.50;16116173;19;129985;-56
2023/07/06 08:54:24;;;;;;;2.92;1.27;;;;;;;22.33;39.40;101704.81;16115046;19;131597;-57
2023/07/06 08:59:49;;;;;;;4.80;1.47;;;;;;;22.31;39.82;101705.06;16118637;19;130560;-57
2023/07/06 09:05:14;;;;;;;8.23;1.53;;;;;;;22.32;39.54;101701.19;16113082;19;130160;-57
2023/07/06 09:10:38;;;;;;;6.10;1.08;;;;;;;22.32;39.70;101709.53;16114585;19;129860;-55
2023/07/06 09:16:02;;;;;;;4.30;1.25;;;;;;;22.31;39.48;101712.59;16113210;19;129521;-55
2023/07/06 09:21:25;;;;;;;4.50;1.50;;;;;;;22.33;39.71;101716.81;16112409;19;132014;-54
2023/07/06 09:26:47;;;;;;;3.42;1.20;;;;;;;22.34;39.75;101714.88;16114300;19;129787;-55
2023/07/06 09:32:16;;;;;;;4.25;1.08;;;;;;;22.32;39.63;101709.53;16112253;19;129334;-54
2023/07/06 09:37:48;;;;;;;3.40;0.98;;;;;;;22.33;39.91;101714.03;16115135;19;134071;-56
2023/07/06 09:43:16;;;;;;;3.78;1.10;;;;;;;22.31;40.05;101710.63;16113063;19;130946;-57
2023/07/06 09:48:39;;;;;;;4.35;1.35;;;;;;;22.29;39.87;101712.81;16111916;19;133095;-54
2023/07/06 09:54:05;;;;;;;3.55;1.10;;;;;;;22.30;39.62;101720.09;16112551;19;129626;-57
2023/07/06 09:59:27;;;;;;;2.63;0.82;;;;;;;22.30;40.13;101722.06;16114273;19;130689;-53
2023/07/06 10:04:52;;;;;;;5.40;1.23;;;;;;;22.31;39.85;101724.56;16110495;19;131006;-54
2023/07/06 10:10:43;;;;;;;2.50;0.90;;;;;;;22.33;39.88;101718.75;16112266;19;131305;-52
2023/07/06 10:16:23;;;;;;;4.45;1.38;;;;;;;22.33;39.50;101722.38;16111156;19;130257;-51
2023/07/06 10:21:57;;;;;;;3.25;1.40;;;;;;;22.32;39.85;101729.06;16081801;19;131332;-52
2023/07/06 10:27:28;;;;;;;2.50;1.17;;;;;;;22.33;39.77;101725.16;16106672;19;130027;-51
2023/07/06 10:32:53;;;;;;;3.00;0.90;;;;;;;22.32;39.90;101729.06;16124113;19;129783;-54
2023/07/06 10:38:16;;;;;;;6.55;0.90;;;;;;;22.32;39.50;101717.06;16126268;19;129547;-55
2023/07/06 10:43:40;;;;;;;1.98;0.88;;;;;;;22.33;39.71;101727.13;16129092;19;129830;-55
2023/07/06 10:49:22;;;;;;;2.63;0.80;;;;;;;22.35;39.58;101717.41;16125070;19;129687;-53
2023/07/06 10:54:46;;;;;;;2.50;1.10;;;;;;;22.33;39.68;101725.16;16124037;19;131413;-58
2023/07/06 11:00:17;;;;;;;7.27;1.30;;;;;;;22.34;39.55;101726.88;16115196;19;129594;-55
2023/07/06 11:06:06;;;;;;;3.10;1.17;;;;;;;22.35;39.63;101731.34;16116837;19;129598;-54
2023/07/06 11:11:29;;;;;;;4.90;1.10;;;;;;;22.33;39.44;101730.75;16118429;19;130047;-52
2023/07/06 11:17:10;;;;;;;5.43;1.10;;;;;;;22.35;39.41;101736.91;16122639;19;129435;-54
2023/07/06 11:22:33;;;;;;;6.32;1.13;;;;;;;22.33;39.34;101725.16;16122598;19;129657;-52
2023/07/06 11:28:02;;;;;;;6.30;1.42;;;;;;;22.35;39.29;101722.13;16123192;19;131063;-52
2023/07/06 11:33:42;;;;;;;2.13;0.90;;;;;;;22.34;39.33;101738.00;16123994;19;130812;-55
2023/07/06 11:39:49;;;;;;;3.28;0.80;;;;;;;22.36;39.48;101735.81;16120739;19;130804;-53
2023/07/06 11:45:40;;;;;;;3.10;1.10;;;;;;;22.34;39.77;101721.28;16111276;19;130000;-53
2023/07/06 11:51:04;;;;;;;3.35;1.17;;;;;;;22.34;39.37;101720.47;16111137;19;130598;-55
2023/07/06 11:56:35;;;;;;;2.90;1.20;;;;;;;22.34;39.33;101715.72;16115652;19;129512;-52
2023/07/06 12:01:57;;;;;;;2.17;1.00;;;;;;;22.33;39.41;101725.16;16109059;19;130341;-55
2023/07/06 12:07:26;;;;;;;2.78;0.88;;;;;;;22.35;39.28;101734.13;16109954;19;129629;-52
2023/07/06 12:12:48;;;;;;;3.15;0.80;;;;;;;22.33;39.41;101725.16;16108902;19;130224;-55
2023/07/06 12:18:14;;;;;;;3.20;0.90;;;;;;;22.35;39.28;101731.34;16115682;19;129259;-57
2023/07/06 12:23:39;;;;;;;2.65;0.77;;;;;;;22.36;39.20;101735.81;16124684;19;130840;-54
2023/07/06 12:29:02;;;;;;;3.58;0.90;;;;;;;22.38;39.23;101730.84;16118799;19;131470;-53
2023/07/06 12:34:29;;;;;;;1.85;1.00;;;;;;;22.38;39.04;101732.78;16118881;19;131051;-56
2023/07/06 12:39:52;;;;;;;2.85;1.10;;;;;;;22.36;38.90;101735.81;16119591;19;131300;-52
2023/07/06 12:45:18;;;;;;;1.80;0.73;;;;;;;22.38;39.10;101728.06;16116314;19;131894;-54
2023/07/06 12:50:41;;;;;;;4.30;0.85;;;;;;;22.38;39.17;101721.63;16111856;19;131446;-54
2023/07/06 12:56:10;;;;;;;3.47;1.20;;;;;;;22.38;38.96;101725.28;16116155;19;129726;-55
2023/07/06 13:01:35;;;;;;;1.92;0.90;;;;;;;22.36;38.93;101716.31;16113038;19;130118;-53
2023/07/06 13:06:57;;;;;;;3.03;0.80;;;;;;;22.37;38.86;101715.22;16112810;19;129702;-57
2023/07/06 13:12:24;;;;;;;3.70;0.77;;;;;;;22.38;39.12;101716.91;16115462;19;129733;-55
2023/07/06 13:18:01;;;;;;;3.08;0.90;;;;;;;22.40;38.77;101719.44;16114270;19;129508;-56
2023/07/06 13:23:23;;;;;;;1.30;0.70;;;;;;;22.38;38.98;101716.91;16112165;19;130856;-56
2023/07/06 13:28:45;;;;;;;3.78;0.68;;;;;;;22.38;38.92;101711.34;16112603;19;129268;-58
2023/07/06 13:34:09;;;;;;;3.30;0.85;;;;;;;22.39;38.62;101713.03;16111173;19;129660;-58
2023/07/06 13:39:31;;;;;;;4.32;0.90;;;;;;;22.38;38.76;101708.53;16116450;19;131448;-57
2023/07/06 13:44:54;;;;;;;1.73;0.73;;;;;;;22.39;38.66;101713.03;16115062;19;129941;-56
2023/07/06 13:50:16;;;;;;;2.38;0.70;;;;;;;22.41;38.86;101709.97;16113248;19;130413;-56
2023/07/06 13:55:49;;;;;;;2.22;0.70;;;;;;;22.43;38.70;101711.41;16114753;19;131633;-57
2023/07/06 14:01:13;;;;;;;3.22;0.73;;;;;;;22.40;38.57;101709.09;16113142;19;129762;-56
2023/07/06 14:06:34;;;;;;;4.15;0.85;;;;;;;22.40;38.69;101697.97;16114792;19;129428;-56
2023/07/06 14:11:56;;;;;;;1.40;0.50;;;;;;;22.41;38.77;101705.22;16114264;19;129534;-55
2023/07/06 14:17:18;;;;;;;1.48;0.60;;;;;;;22.42;38.59;101700.50;16104862;19;130250;-59
2023/07/06 14:22:40;;;;;;;2.47;0.80;;;;;;;22.41;38.62;101705.22;16111743;19;131121;-57
2023/07/06 14:28:03;;;;;;;1.38;0.63;;;;;;;22.41;38.70;101705.22;16109849;19;130183;-55
2023/07/06 14:33:26;;;;;;;1.60;0.68;;;;;;;22.42;38.77;101698.56;16111452;19;129485;-57
2023/07/06 14:38:48;;;;;;;1.80;0.85;;;;;;;22.41;38.64;101699.66;16112036;19;130258;-58
2023/07/06 14:44:10;;;;;;;2.78;0.77;;;;;;;22.41;38.98;101699.66;16110585;19;130723;-57
2023/07/06 14:49:32;;;;;;;0.63;0.50;;;;;;;22.43;38.71;101700.25;16107489;19;129445;-56
2023/07/06 14:54:54;;;;;;;1.80;0.52;;;;;;;22.45;38.63;101688.84;16110632;19;129578;-57
2023/07/06 15:00:17;;;;;;;1.60;0.52;;;;;;;22.44;39.01;101682.41;16110097;19;130324;-54
2023/07/06 15:05:39;;;;;;;1.73;0.50;;;;;;;22.45;38.42;101677.72;16110445;19;130003;-57
2023/07/06 15:11:01;;;;;;;1.45;0.60;;;;;;;22.44;38.40;101674.06;16110395;19;131101;-56
2023/07/06 15:16:23;;;;;;;1.50;0.52;;;;;;;22.46;38.76;101678.53;16122083;19;129414;-53
2023/07/06 15:21:45;;;;;;;1.63;0.60;;;;;;;22.44;38.33;101673.22;16120627;19;130614;-56
2023/07/06 15:27:07;;;;;;;1.13;0.70;;;;;;;22.44;38.33;101671.28;16125246;19;130572;-57
2023/07/06 15:32:29;;;;;;;4.00;0.90;;;;;;;22.44;38.45;101681.59;16124600;19;130768;-57
2023/07/06 15:37:51;;;;;;;2.97;1.00;;;;;;;22.47;38.19;101661.53;16117730;19;131036;-56
2023/07/06 15:43:13;;;;;;;3.33;1.40;;;;;;;22.55;37.65;101660.28;16124940;19;133294;-56
2023/07/06 15:48:36;;;;;;;3.40;1.00;;;;;;;22.61;37.65;101650.91;16127231;19;129951;-57
2023/07/06 15:53:58;;;;;;;3.60;1.00;;;;;;;22.63;37.44;101662.66;16125490;19;129586;-54
2023/07/06 15:59:21;;;;;;;4.65;1.42;;;;;;;22.67;37.40;101658.22;16125772;19;130866;-58
2023/07/06 16:04:43;;;;;;;4.25;1.17;;;;;;;22.70;37.21;101652.13;16126209;19;129584;-57
2023/07/06 16:10:06;;;;;;;5.57;1.13;;;;;;;22.74;37.10;101658.03;16123529;19;132304;-57
2023/07/06 16:15:28;;;;;;;3.92;1.63;;;;;;;22.76;36.99;101655.03;16117944;19;132631;-58
2023/07/06 16:20:55;;;;;;;5.50;1.33;;;;;;;22.77;36.75;101651.13;16118547;19;130155;-60
2023/07/06 16:26:20;;;;;;;6.25;1.23;;;;;;;22.78;36.62;101650.00;16120430;19;129337;-58
2023/07/06 16:31:42;;;;;;;5.00;1.27;;;;;;;22.79;36.58;101646.97;16121607;19;130669;-58
2023/07/06 16:37:04;;;;;;;7.60;2.00;;;;;;;22.80;36.69;101639.44;16114427;19;130311;-57
2023/07/06 16:42:26;;;;;;;7.40;1.67;;;;;;;22.81;36.47;101638.34;16114169;19;129467;-57
2023/07/06 16:47:48;;;;;;;7.82;1.95;;;;;;;22.82;36.88;101648.41;16118448;19;129413;-58
2023/07/06 16:53:11;;;;;;;5.78;1.60;;;;;;;22.79;37.11;101644.19;16113716;19;129083;-59
2023/07/06 16:58:34;;;;;;;7.07;2.75;;;;;;;22.78;36.79;101642.50;16118976;19;131244;-58
2023/07/06 17:03:55;;;;;;;10.65;2.75;;;;;;;22.76;37.04;101641.06;16113980;19;131155;-59
2023/07/06 17:09:18;;;;;;;11.88;2.72;;;;;;;22.74;36.77;101639.38;16116248;19;133512;-56
2023/07/06 17:14:41;;;;;;;14.65;3.35;;;;;;;22.74;37.03;101642.16;16114143;19;131063;-58
2023/07/06 17:20:03;;;;;;;7.32;2.78;;;;;;;22.72;36.83;101641.56;16112992;19;130458;-57
2023/07/06 17:25:26;;;;;;;8.18;2.53;;;;;;;22.72;36.89;101644.38;16108776;19;132449;-58
2023/07/06 17:30:48;;;;;;;12.43;2.78;;;;;;;22.73;37.03;101647.97;16114217;19;131188;-57
2023/07/06 17:36:10;;;;;;;4.15;2.25;;;;;;;22.74;37.29;101647.75;16107684;19;129471;-58
2023/07/06 17:41:32;;;;;;;5.97;2.17;;;;;;;22.76;37.01;101646.66;16034797;19;129699;-58
2023/07/06 17:46:54;;;;;;;8.07;2.55;;;;;;;22.76;37.31;101646.66;16113485;19;131009;-58
2023/07/06 17:52:16;;;;;;;7.85;2.75;;;;;;;22.76;37.18;101643.84;16110158;19;131301;-57
2023/07/06 17:57:38;;;;;;;6.35;2.22;;;;;;;22.76;37.40;101646.66;16108394;19;130956;-61
2023/07/06 18:03:02;;;;;;;5.03;1.95;;;;;;;22.73;37.04;101645.19;16106785;19;130619;-57
2023/07/06 18:08:24;;;;;;;5.32;2.13;;;;;;;22.73;37.41;101647.97;16107803;19;129395;-54
2023/07/06 18:13:46;;;;;;;4.03;1.80;;;;;;;22.76;37.22;101643.84;16105879;19;130679;-56
2023/07/06 18:19:08;;;;;;;5.00;1.95;;;;;;;22.80;37.47;101645.00;16109766;19;129664;-55
2023/07/06 18:24:29;;;;;;;10.27;1.92;;;;;;;22.81;37.40;101652.28;16108413;19;131019;-55
2023/07/06 18:29:51;;;;;;;6.53;2.20;;;;;;;22.82;37.43;101657.63;16105034;19;130380;-58
2023/07/06 18:35:14;;;;;;;12.40;2.22;;;;;;;22.85;37.37;101659.88;16103657;19;130360;-58
2023/07/06 18:40:36;;;;;;;5.82;1.58;;;;;;;22.86;37.61;101663.53;16110219;19;130784;-58
2023/07/06 18:45:58;;;;;;;6.82;1.80;;;;;;;22.87;37.73;101665.22;16111956;19;129382;-59
2023/07/06 18:51:23;;;;;;;5.47;1.65;;;;;;;22.88;37.81;101661.31;16122206;19;130016;-58
2023/07/06 18:56:45;;;;;;;8.30;1.80;;;;;;;22.87;38.07;101673.59;16123645;19;129583;-58
2023/07/06 19:02:09;;;;;;;13.63;1.77;;;;;;;22.86;38.05;101677.47;16119751;19;130690;-57
2023/07/06 19:07:34;;;;;;;15.23;2.30;;;;;;;22.86;38.25;101677.47;16122699;19;129679;-59
2023/07/06 19:13:10;;;;;;;11.95;1.60;;;;;;;22.85;38.42;101681.38;16121365;19;132051;-59
2023/07/06 19:18:32;;;;;;;10.90;1.73;;;;;;;22.83;38.22;101677.97;16116176;19;132279;-58
2023/07/06 19:23:54;;;;;;;6.57;1.58;;;;;;;22.83;38.37;101677.97;16122187;19;130427;-58
2023/07/06 19:29:19;;;;;;;12.98;1.55;;;;;;;22.81;38.65;101688.53;16128789;19;130331;-58
2023/07/06 19:34:41;;;;;;;7.60;1.45;;;;;;;22.79;38.80;101687.94;16122816;19;130269;-57
2023/07/06 19:40:04;;;;;;;7.38;1.50;;;;;;;22.79;38.72;101691.59;16122353;19;129587;-58
2023/07/06 19:45:26;;;;;;;6.60;1.23;;;;;;;22.79;39.11;101694.41;16127609;19;130916;-59
2023/07/06 19:50:48;;;;;;;18.00;1.50;;;;;;;22.78;39.17;101691.84;16127605;19;130791;-56
2023/07/06 19:56:14;;;;;;;7.70;1.25;;;;;;;22.77;39.06;101698.56;16126433;19;131183;-58
2023/07/06 20:01:35;;;;;;;12.07;1.20;;;;;;;22.78;39.42;101709.44;16116627;19;130064;-59
2023/07/06 20:07:00;;;;;;;14.43;0.97;;;;;;;22.73;39.31;101715.78;16118622;19;129863;-56
2023/07/06 20:12:22;;;;;;;18.05;1.52;;;;;;;22.70;39.86;101721.88;16110792;19;132326;-55
2023/07/06 20:17:44;;;;;;;13.07;1.60;;;;;;;22.68;39.54;101721.28;16114349;19;129872;-58
2023/07/06 20:23:06;;;;;;;12.23;1.50;;;;;;;22.64;39.80;101728.47;16121931;19;129942;-57
2023/07/06 20:28:28;;;;;;;10.25;1.85;;;;;;;22.62;39.74;101730.69;16120157;19;129249;-59
2023/07/06 20:33:49;;;;;;;4.65;1.52;;;;;;;22.59;39.57;101737.59;16121517;19;131269;-57
2023/07/06 20:39:12;;;;;;;5.53;1.50;;;;;;;22.58;39.71;101732.28;16113909;19;130105;-58
2023/07/06 20:44:33;;;;;;;4.13;1.60;;;;;;;22.60;40.01;101741.22;16116109;19;130085;-58
2023/07/06 20:49:55;;;;;;;8.52;1.38;;;;;;;22.58;40.11;101740.63;16113554;19;130344;-56
2023/07/06 20:55:17;;;;;;;18.25;1.85;;;;;;;22.56;40.07;101738.13;16115015;19;131205;-57
2023/07/06 21:00:40;;;;;;;16.67;1.70;;;;;;;22.55;40.28;101741.13;16113676;19;129730;-58
2023/07/06 21:06:03;;;;;;;8.98;1.70;;;;;;;22.53;39.69;101740.53;16111388;19;132181;-56
2023/07/06 21:11:24;;;;;;;10.05;1.70;;;;;;;22.51;40.00;101742.75;16116243;19;130634;-56
2023/07/06 21:16:47;;;;;;;12.32;1.58;;;;;;;22.50;40.05;101755.00;16108642;19;129689;-57
2023/07/06 21:22:09;;;;;;;6.68;1.40;;;;;;;22.46;39.78;101757.47;16113554;19;129595;-57
2023/07/06 21:27:30;;;;;;;6.30;1.52;;;;;;;22.44;39.84;101759.66;16113358;19;130742;-56
2023/07/06 21:32:52;;;;;;;6.80;1.17;;;;;;;22.42;40.11;101762.69;16114829;19;131126;-57
2023/07/06 21:38:14;;;;;;;3.97;1.48;;;;;;;22.41;39.92;101758.19;16115536;19;129689;-59
2023/07/06 21:43:36;;;;;;;6.93;1.10;;;;;;;22.38;40.02;101755.94;16112459;19;131035;-58
2023/07/06 21:48:58;;;;;;;2.30;0.82;;;;;;;22.39;40.12;101766.00;16112374;19;134293;-58
2023/07/06 21:54:20;;;;;;;6.18;1.20;;;;;;;22.38;39.97;101767.09;16109837;19;130254;-59
2023/07/06 21:59:42;;;;;;;2.17;0.88;;;;;;;22.36;40.11;101774.84;16111825;19;130858;-58
2023/07/06 22:05:04;;;;;;;4.53;1.00;;;;;;;22.35;40.03;101772.28;16107453;19;129595;-59
2023/07/06 22:10:26;;;;;;;3.10;1.15;;;;;;;22.33;40.16;101780.91;16108488;19;130029;-58
2023/07/06 22:15:54;;;;;;;2.35;0.90;;;;;;;22.31;40.12;101777.53;16107580;19;130425;-57
2023/07/06 22:21:17;;;;;;;4.60;1.00;;;;;;;22.29;39.93;101785.28;16111090;19;130452;-58
2023/07/06 22:26:39;;;;;;;3.03;1.02;;;;;;;22.28;39.95;101786.38;16120930;19;132484;-57
2023/07/06 22:32:01;;;;;;;2.42;0.98;;;;;;;22.26;40.00;101785.81;16113579;19;129980;-57
2023/07/06 22:37:23;;;;;;;1.52;0.70;;;;;;;22.25;40.08;101789.69;16119816;19;132222;-58
2023/07/06 22:42:45;;;;;;;3.58;0.80;;;;;;;22.24;39.98;101793.59;16122198;19;129821;-58
2023/07/06 22:48:08;;;;;;;4.90;0.90;;;;;;;22.25;39.99;101795.28;16119751;19;129897;-58
2023/07/06 22:53:31;;;;;;;4.28;0.85;;;;;;;22.21;39.97;101791.28;16116322;19;132039;-57
2023/07/06 22:58:53;;;;;;;2.95;1.05;;;;;;;22.20;40.02;101797.91;16121677;19;133244;-56
2023/07/06 23:04:15;;;;;;;0.93;0.60;;;;;;;22.20;39.96;101795.13;16117895;19;130955;-59
2023/07/06 23:09:37;;;;;;;1.25;0.60;;;;;;;22.17;40.10;101788.13;16120144;19;130071;-58
2023/07/06 23:14:59;;;;;;;1.58;0.60;;;;;;;22.18;39.82;101791.75;16116913;19;131211;-57
2023/07/06 23:20:22;;;;;;;1.95;0.65;;;;;;;22.17;40.07;101790.91;16115171;19;130867;-58
2023/07/06 23:25:48;;;;;;;0.77;0.60;;;;;;;22.16;39.99;101797.59;16121595;19;129706;-58
2023/07/06 23:31:11;;;;;;;1.98;0.70;;;;;;;22.16;40.07;101791.16;16118721;19;130634;-58
2023/07/06 23:36:33;;;;;;;1.00;0.60;;;;;;;22.14;40.08;101794.19;16118773;19;133851;-58
2023/07/06 23:41:55;;;;;;;1.30;0.50;;;;;;;22.12;39.79;101797.25;16116169;19;130272;-59
2023/07/06 23:47:16;;;;;;;0.73;0.50;;;;;;;22.12;40.28;101796.38;16118545;19;131733;-58
2023/07/06 23:52:38;;;;;;;2.20;0.60;;;;;;;22.11;40.15;101789.97;16114923;19;130876;-59
2023/07/06 23:58:00;;;;;;;1.70;0.40;;;;;;;22.10;39.99;101791.06;16119070;19;131772;-58
